createdAt,value
2018-04-07T00:01:12.842Z,11.53
2018-04-07T00:03:41.160Z,9.03
2018-04-07T00:06:09.452Z,9.50
2018-04-07T00:08:38.533Z,10.47
2018-04-07T00:11:06.901Z,8.90
2018-04-07T00:13:35.585Z,10.90
2018-04-07T00:16:04.305Z,10.93
2018-04-07T00:18:35.877Z,10.57
2018-04-07T00:21:04.793Z,10.40
2018-04-07T00:23:33.206Z,11.90
2018-04-07T00:26:02.200Z,10.77
2018-04-07T00:28:30.523Z,10.57
2018-04-07T00:33:39.549Z,10.10
2018-04-07T00:36:07.876Z,11.17
2018-04-07T00:38:36.828Z,10.00
2018-04-07T00:41:07.384Z,10.57
2018-04-07T00:43:35.716Z,11.40
2018-04-07T00:46:04.015Z,11.20
2018-04-07T00:48:32.385Z,11.73
2018-04-07T00:51:02.034Z,13.03
2018-04-07T00:53:30.458Z,11.80
2018-04-07T00:55:59.906Z,10.60
2018-04-07T00:58:28.256Z,10.40
2018-04-07T01:00:56.561Z,10.30
2018-04-07T01:03:25.415Z,12.40
2018-04-07T01:05:53.818Z,12.20
2018-04-07T01:08:22.744Z,11.20
2018-04-07T01:10:51.081Z,12.50
2018-04-07T01:13:20.896Z,12.07
2018-04-07T01:15:49.284Z,12.33
2018-04-07T01:18:18.205Z,12.63
2018-04-07T01:20:46.657Z,14.40
2018-04-07T01:23:15.676Z,12.97
2018-04-07T01:25:44.218Z,13.07
2018-04-07T01:28:14.331Z,14.87
2018-04-07T01:30:43.873Z,12.70
2018-04-07T01:33:13.851Z,11.30
2018-04-07T01:35:42.785Z,12.10
2018-04-07T01:38:11.303Z,12.87
2018-04-07T01:40:40.857Z,11.83
2018-04-07T01:43:10.811Z,11.40
2018-04-07T01:45:39.319Z,12.77
2018-04-07T01:48:08.306Z,11.50
2018-04-07T01:50:36.597Z,10.90
2018-04-07T01:53:04.973Z,11.53
2018-04-07T01:55:34.655Z,12.10
2018-04-07T01:58:02.945Z,12.40
2018-04-07T02:00:31.300Z,13.50
2018-04-07T02:02:59.722Z,12.17
2018-04-07T02:05:28.018Z,11.70
2018-04-07T02:07:59.726Z,13.13
2018-04-07T02:10:28.776Z,12.40
2018-04-07T02:12:57.260Z,11.17
2018-04-07T02:15:26.425Z,10.33
2018-04-07T02:17:54.793Z,10.70
2018-04-07T02:20:23.596Z,11.80
2018-04-07T02:22:53.183Z,13.00
2018-04-07T02:25:21.470Z,10.47
2018-04-07T02:27:50.044Z,11.20
2018-04-07T02:30:24.893Z,12.80
2018-04-07T02:32:53.200Z,12.53
2018-04-07T02:35:22.266Z,12.77
2018-04-07T02:37:51.236Z,13.57
2018-04-07T02:40:19.527Z,14.33
2018-04-07T02:42:48.221Z,12.00
2018-04-07T02:45:17.796Z,12.23
2018-04-07T02:47:46.197Z,12.93
2018-04-07T02:50:15.226Z,13.27
2018-04-07T02:52:44.992Z,14.03
2018-04-07T02:55:13.293Z,12.80
2018-04-07T02:57:42.265Z,13.90
2018-04-07T03:00:11.274Z,12.10
2018-04-07T03:02:40.511Z,13.07
2018-04-07T03:05:09.769Z,13.70
2018-04-07T03:07:38.736Z,12.57
2018-04-07T03:10:07.108Z,14.17
2018-04-07T03:12:36.231Z,12.27
2018-04-07T03:15:04.968Z,11.60
2018-04-07T03:17:34.265Z,12.90
2018-04-07T03:20:04.140Z,13.63
2018-04-07T03:22:32.492Z,13.80
2018-04-07T03:25:01.596Z,14.23
2018-04-07T03:27:29.916Z,12.83
2018-04-07T03:29:58.317Z,13.10
2018-04-07T03:32:26.951Z,13.63
2018-04-07T03:34:55.640Z,13.47
2018-04-07T03:37:25.228Z,12.13
2018-04-07T03:39:53.517Z,15.03
2018-04-07T03:42:21.996Z,15.00
2018-04-07T03:44:51.168Z,14.80
2018-04-07T03:47:19.733Z,13.80
2018-04-07T03:49:48.481Z,15.30
2018-04-07T03:52:16.777Z,14.53
2018-04-07T03:54:45.063Z,15.10
2018-04-07T03:57:14.148Z,13.17
2018-04-07T03:59:46.251Z,15.13
2018-04-07T04:02:14.881Z,13.00
2018-04-07T04:04:43.745Z,16.10
2018-04-07T04:07:12.060Z,16.30
2018-04-07T04:09:41.388Z,14.57
2018-04-07T04:12:10.269Z,13.97
2018-04-07T04:14:38.604Z,14.33
2018-04-07T04:17:06.893Z,12.73
2018-04-07T04:19:35.925Z,14.00
2018-04-07T04:22:04.252Z,13.03
2018-04-07T04:24:35.095Z,12.70
2018-04-07T04:27:03.585Z,13.77
2018-04-07T04:29:32.406Z,12.90
2018-04-07T04:32:02.892Z,13.67
2018-04-07T04:34:31.485Z,12.10
2018-04-07T04:37:01.405Z,12.93
2018-04-07T04:39:30.346Z,12.83
2018-04-07T04:41:58.634Z,13.37
2018-04-07T04:44:27.919Z,12.60
2018-04-07T04:46:56.825Z,13.60
2018-04-07T04:49:25.149Z,13.17
2018-04-07T04:51:54.220Z,13.47
2018-04-07T04:54:23.124Z,13.47
2018-04-07T04:56:51.708Z,13.73
2018-04-07T04:59:20.818Z,12.20
2018-04-07T05:01:49.720Z,12.23
2018-04-07T05:04:20.017Z,15.10
2018-04-07T05:06:48.673Z,11.83
2018-04-07T05:09:17.888Z,11.83
2018-04-07T05:11:46.241Z,13.07
2018-04-07T05:14:14.532Z,13.53
2018-04-07T05:16:44.359Z,14.60
2018-04-07T05:19:12.712Z,15.13
2018-04-07T05:21:41.844Z,16.40
2018-04-07T05:24:10.776Z,15.87
2018-04-07T05:26:39.215Z,13.97
2018-04-07T05:29:07.509Z,15.70
2018-04-07T05:31:35.802Z,16.60
2018-04-07T05:34:04.797Z,14.40
2018-04-07T05:36:33.093Z,14.20
2018-04-07T05:39:02.137Z,20.10
2018-04-07T05:41:30.485Z,16.00
2018-04-07T05:43:58.768Z,16.37
2018-04-07T05:46:27.278Z,13.23
2018-04-07T05:48:57.184Z,14.03
2018-04-07T05:51:25.881Z,12.50
2018-04-07T05:53:55.274Z,15.10
2018-04-07T05:56:23.561Z,14.00
2018-04-07T05:58:51.968Z,13.43
2018-04-07T06:01:22.052Z,13.30
2018-04-07T06:03:50.985Z,11.80
2018-04-07T06:06:19.298Z,12.63
2018-04-07T06:08:47.613Z,12.27
2018-04-07T06:11:15.913Z,13.37
2018-04-07T06:13:46.566Z,14.00
2018-04-07T06:16:14.900Z,13.70
2018-04-07T06:18:43.187Z,13.70
2018-04-07T06:21:13.925Z,12.20
2018-04-07T06:23:42.589Z,13.27
2018-04-07T06:26:11.200Z,11.40
2018-04-07T06:28:40.353Z,11.60
2018-04-07T06:31:08.772Z,12.50
2018-04-07T06:33:37.664Z,12.57
2018-04-07T06:36:06.199Z,12.73
2018-04-07T06:38:34.493Z,12.87
2018-04-07T06:41:02.785Z,13.53
2018-04-07T06:43:31.158Z,13.03
2018-04-07T06:46:00.080Z,12.10
2018-04-07T06:48:28.449Z,12.70
2018-04-07T06:50:57.373Z,12.60
2018-04-07T06:53:27.597Z,11.73
2018-04-07T06:55:57.138Z,11.33
2018-04-07T06:58:26.632Z,11.80
2018-04-07T07:00:55.825Z,12.57
2018-04-07T07:03:25.284Z,14.17
2018-04-07T07:05:53.664Z,12.63
2018-04-07T07:08:22.332Z,13.77
2018-04-07T07:10:52.568Z,13.30
2018-04-07T07:13:22.013Z,13.73
2018-04-07T07:15:50.909Z,13.33
2018-04-07T07:18:20.863Z,12.63
2018-04-07T07:20:54.986Z,11.50
2018-04-07T07:23:26.504Z,13.20
2018-04-07T07:25:55.536Z,13.30
2018-04-07T07:28:26.389Z,13.90
2018-04-07T07:30:55.465Z,13.03
2018-04-07T07:33:24.465Z,13.87
2018-04-07T07:35:53.681Z,12.60
2018-04-07T07:38:22.772Z,14.17
2018-04-07T07:40:51.549Z,14.73
2018-04-07T07:43:21.584Z,15.50
2018-04-07T07:45:50.017Z,16.73
2018-04-07T07:48:18.313Z,14.60
2018-04-07T07:50:46.618Z,15.80
2018-04-07T07:53:15.156Z,14.53
2018-04-07T07:55:44.597Z,16.70
2018-04-07T07:58:13.689Z,14.07
2018-04-07T08:00:42.945Z,16.40
2018-04-07T08:03:11.834Z,15.17
2018-04-07T08:05:40.333Z,15.93
2018-04-07T08:08:09.252Z,14.50
2018-04-07T08:10:37.616Z,15.47
2018-04-07T08:13:06.789Z,15.70
2018-04-07T08:15:35.898Z,15.17
2018-04-07T08:18:04.820Z,13.97
2018-04-07T08:20:33.965Z,13.70
2018-04-07T08:23:02.356Z,15.83
2018-04-07T08:25:31.285Z,15.00
2018-04-07T08:28:00.041Z,15.30
2018-04-07T08:30:28.820Z,13.23
2018-04-07T08:32:57.705Z,13.27
2018-04-07T08:35:26.525Z,14.30
2018-04-07T08:37:55.334Z,14.30
2018-04-07T08:40:24.219Z,15.53
2018-04-07T08:42:52.542Z,13.70
2018-04-07T08:45:21.760Z,16.13
2018-04-07T08:47:50.060Z,14.80
2018-04-07T08:50:18.969Z,15.33
2018-04-07T08:52:48.102Z,15.43
2018-04-07T08:55:17.320Z,13.40
2018-04-07T08:57:46.161Z,14.50
2018-04-07T09:00:14.604Z,16.47
2018-04-07T09:02:43.014Z,14.77
2018-04-07T09:05:11.985Z,18.27
2018-04-07T09:07:41.209Z,15.77
2018-04-07T09:10:11.108Z,14.33
2018-04-07T09:12:40.015Z,15.50
2018-04-07T09:15:09.270Z,14.30
2018-04-07T09:17:38.205Z,15.10
2018-04-07T09:20:07.291Z,15.40
2018-04-07T09:22:35.629Z,14.77
2018-04-07T09:25:04.540Z,16.43
2018-04-07T09:27:33.769Z,16.97
2018-04-07T09:30:02.478Z,15.10
2018-04-07T09:32:31.951Z,14.77
2018-04-07T09:35:01.050Z,15.13
2018-04-07T09:37:29.616Z,16.77
2018-04-07T09:39:57.987Z,16.20
2018-04-07T09:42:26.780Z,14.30
2018-04-07T09:44:55.878Z,15.10
2018-04-07T09:47:24.164Z,15.50
2018-04-07T09:49:55.797Z,14.30
2018-04-07T09:52:29.965Z,13.63
2018-04-07T09:54:58.639Z,16.20
2018-04-07T09:57:27.014Z,14.00
2018-04-07T09:59:55.444Z,14.67
2018-04-07T10:02:25.104Z,15.30
2018-04-07T10:04:54.472Z,13.90
2018-04-07T10:07:23.397Z,14.77
2018-04-07T10:09:51.876Z,14.67
2018-04-07T10:12:20.785Z,12.30
2018-04-07T10:14:50.030Z,12.67
2018-04-07T10:17:19.121Z,11.97
2018-04-07T10:19:48.031Z,14.23
2018-04-07T10:22:16.336Z,12.90
2018-04-07T10:24:44.778Z,13.90
2018-04-07T10:27:14.521Z,13.00
2018-04-07T10:29:42.829Z,13.57
2018-04-07T10:32:12.879Z,12.90
2018-04-07T10:34:41.656Z,13.53
2018-04-07T10:37:10.253Z,14.20
2018-04-07T10:39:38.657Z,13.07
2018-04-07T10:42:07.724Z,12.70
2018-04-07T10:44:36.565Z,12.20
2018-04-07T10:47:05.820Z,12.20
2018-04-07T10:49:34.913Z,13.10
2018-04-07T10:52:04.869Z,13.00
2018-04-07T10:54:34.736Z,13.57
2018-04-07T10:57:03.677Z,13.93
2018-04-07T10:59:32.940Z,14.17
2018-04-07T11:02:01.858Z,14.20
2018-04-07T11:04:30.302Z,14.23
2018-04-07T11:07:00.220Z,16.77
2018-04-07T11:09:29.216Z,13.80
2018-04-07T11:11:58.098Z,13.93
2018-04-07T11:14:26.681Z,13.80
2018-04-07T11:16:55.125Z,13.60
2018-04-07T11:19:23.951Z,19.73
2018-04-07T11:21:52.301Z,16.37
2018-04-07T11:24:21.264Z,14.20
2018-04-07T11:26:49.600Z,14.43
2018-04-07T11:29:17.984Z,13.87
2018-04-07T11:31:47.080Z,13.77
2018-04-07T11:34:16.034Z,15.47
2018-04-07T11:36:44.375Z,13.10
2018-04-07T11:39:13.380Z,15.27
2018-04-07T11:41:42.639Z,13.40
2018-04-07T11:44:11.608Z,15.13
2018-04-07T11:46:39.905Z,14.30
2018-04-07T11:49:09.744Z,13.43
2018-04-07T11:51:38.200Z,15.00
2018-04-07T11:54:07.046Z,15.87
2018-04-07T11:56:35.346Z,16.63
2018-04-07T11:59:03.080Z,14.83
2018-04-07T12:01:31.969Z,14.77
2018-04-07T12:04:00.272Z,15.53
2018-04-07T12:06:28.753Z,13.60
2018-04-07T12:08:58.169Z,16.07
2018-04-07T12:11:26.889Z,14.03
2018-04-07T12:13:56.013Z,14.23
2018-04-07T12:16:24.983Z,13.60
2018-04-07T12:18:57.152Z,13.53
2018-04-07T12:21:25.440Z,14.53
2018-04-07T12:23:54.833Z,15.37
2018-04-07T12:26:23.820Z,13.90
2018-04-07T12:28:52.296Z,15.37
2018-04-07T12:31:21.354Z,15.70
2018-04-07T12:33:50.470Z,14.50
2018-04-07T12:36:19.330Z,13.87
2018-04-07T12:38:47.629Z,14.20
2018-04-07T12:41:18.508Z,15.17
2018-04-07T12:43:47.580Z,14.93
2018-04-07T12:46:17.289Z,12.40
2018-04-07T12:48:46.256Z,14.70
2018-04-07T12:51:14.704Z,13.50
2018-04-07T12:53:43.806Z,14.00
2018-04-07T12:56:12.957Z,13.90
2018-04-07T12:58:41.984Z,13.73
2018-04-07T13:01:14.481Z,13.53
2018-04-07T13:03:43.448Z,12.97
2018-04-07T13:06:12.120Z,14.10
2018-04-07T13:08:40.865Z,12.93
2018-04-07T13:11:09.268Z,14.23
2018-04-07T13:13:37.760Z,14.63
2018-04-07T13:16:11.564Z,13.43
2018-04-07T13:18:40.733Z,14.47
2018-04-07T13:21:10.609Z,13.57
2018-04-07T13:23:40.567Z,12.60
2018-04-07T13:26:08.861Z,13.40
2018-04-07T13:28:37.148Z,13.10
2018-04-07T13:31:05.476Z,11.23
2018-04-07T13:33:38.527Z,13.77
2018-04-07T13:36:02.921Z,13.20
2018-04-07T13:38:31.224Z,17.73
2018-04-07T13:40:59.525Z,13.57
2018-04-07T13:43:29.253Z,13.03
2018-04-07T13:45:57.545Z,14.50
2018-04-07T13:48:25.908Z,14.40
2018-04-07T13:50:54.768Z,13.57
2018-04-07T13:53:23.114Z,14.20
2018-04-07T13:55:51.400Z,11.97
2018-04-07T13:58:20.737Z,13.70
2018-04-07T14:00:49.669Z,12.77
2018-04-07T14:03:18.896Z,13.00
2018-04-07T14:05:47.758Z,12.97
2018-04-07T14:08:16.873Z,11.30
2018-04-07T14:10:45.247Z,14.03
2018-04-07T14:13:14.310Z,14.13
2018-04-07T14:15:43.345Z,12.50
2018-04-07T14:18:11.656Z,13.57
2018-04-07T14:20:39.981Z,12.40
2018-04-07T14:23:08.338Z,10.67
2018-04-07T14:25:37.248Z,12.07
2018-04-07T14:28:05.630Z,11.70
2018-04-07T14:30:34.572Z,11.67
2018-04-07T14:33:03.736Z,12.83
2018-04-07T14:35:33.824Z,12.13
2018-04-07T14:38:03.794Z,11.10
2018-04-07T14:40:33.693Z,10.73
2018-04-07T14:43:05.194Z,10.13
2018-04-07T14:45:33.536Z,9.80
2018-04-07T14:48:02.350Z,10.80
2018-04-07T14:50:31.505Z,10.30
2018-04-07T14:53:00.764Z,9.67
2018-04-07T14:55:29.746Z,10.47
2018-04-07T14:57:58.956Z,9.67
2018-04-07T15:00:28.051Z,9.20
2018-04-07T15:02:56.530Z,10.13
2018-04-07T15:05:25.633Z,9.37
2018-04-07T15:07:57.811Z,7.83
2018-04-07T15:10:26.280Z,8.50
2018-04-07T15:12:55.208Z,6.10
2018-04-07T15:15:23.501Z,7.40
2018-04-07T15:17:52.204Z,7.40
2018-04-07T15:20:20.978Z,7.53
2018-04-07T15:22:49.944Z,7.50
2018-04-07T15:25:20.656Z,7.93
2018-04-07T15:27:49.003Z,6.60
2018-04-07T15:30:17.396Z,7.80
2018-04-07T15:32:46.417Z,6.07
2018-04-07T15:35:14.702Z,5.27
2018-04-07T15:37:43.228Z,4.80
2018-04-07T15:40:13.796Z,5.33
2018-04-07T15:42:42.893Z,5.00
2018-04-07T15:45:11.985Z,4.93
2018-04-07T15:47:41.744Z,5.70
2018-04-07T15:50:10.164Z,5.60
2018-04-07T15:52:39.196Z,4.67
2018-04-07T15:55:09.880Z,5.47
2018-04-07T15:57:38.237Z,6.10
2018-04-07T16:00:06.533Z,5.30
2018-04-07T16:02:35.527Z,4.80
2018-04-07T16:05:03.864Z,5.10
2018-04-07T16:07:33.665Z,3.93
2018-04-07T16:10:05.317Z,6.10
2018-04-07T16:12:33.608Z,5.37
2018-04-07T16:15:02.781Z,5.90
2018-04-07T16:17:31.864Z,5.53
2018-04-07T16:20:00.361Z,5.07
2018-04-07T16:22:29.145Z,4.33
2018-04-07T16:24:57.515Z,4.93
2018-04-07T16:27:26.021Z,5.53
2018-04-07T16:29:54.716Z,5.00
2018-04-07T16:32:23.072Z,5.80
2018-04-07T16:34:52.101Z,6.10
2018-04-07T16:37:20.388Z,5.63
2018-04-07T16:39:50.448Z,11.63
2018-04-07T16:42:19.374Z,8.30
2018-04-07T16:44:48.477Z,7.87
2018-04-07T16:47:18.297Z,6.53
2018-04-07T16:49:47.128Z,7.40
2018-04-07T16:52:15.968Z,7.17
2018-04-07T16:54:44.311Z,7.00
2018-04-07T16:57:13.093Z,8.23
2018-04-07T16:59:41.455Z,8.90
2018-04-07T17:02:09.857Z,7.40
2018-04-07T17:04:38.696Z,8.90
2018-04-07T17:07:07.492Z,8.77
2018-04-07T17:09:35.866Z,8.87
2018-04-07T17:12:04.804Z,10.00
2018-04-07T17:14:33.544Z,9.00
2018-04-07T17:17:01.996Z,9.00
2018-04-07T17:19:30.284Z,8.10
2018-04-07T17:21:58.741Z,8.90
2018-04-07T17:24:27.337Z,8.60
2018-04-07T17:26:55.928Z,8.37
2018-04-07T17:29:24.388Z,8.67
2018-04-07T17:31:53.424Z,8.93
2018-04-07T17:34:24.054Z,10.50
2018-04-07T17:36:53.193Z,8.87
2018-04-07T17:39:21.488Z,10.77
2018-04-07T17:41:50.754Z,10.83
2018-04-07T17:44:19.685Z,9.97
2018-04-07T17:46:48.700Z,10.40
2018-04-07T17:49:18.005Z,11.57
2018-04-07T17:51:47.917Z,10.73
2018-04-07T17:54:16.628Z,11.40
2018-04-07T17:56:45.173Z,12.30
2018-04-07T17:59:13.980Z,13.43
2018-04-07T18:01:42.508Z,12.50
2018-04-07T18:04:11.717Z,10.70
2018-04-07T18:06:41.844Z,10.17
2018-04-07T18:09:10.565Z,10.57
2018-04-07T18:11:38.967Z,10.77
2018-04-07T18:14:07.241Z,9.40
2018-04-07T18:16:36.212Z,9.53
2018-04-07T18:19:04.606Z,10.80
2018-04-07T18:21:32.913Z,10.60
2018-04-07T18:24:01.264Z,10.03
2018-04-07T18:26:29.848Z,9.30
2018-04-07T18:28:58.661Z,9.80
2018-04-07T18:31:27.081Z,8.13
2018-04-07T18:33:56.170Z,10.07
2018-04-07T18:36:25.021Z,10.60
2018-04-07T18:38:53.360Z,10.03
2018-04-07T18:41:21.816Z,10.50
2018-04-07T18:43:50.793Z,10.80
2018-04-07T18:46:19.911Z,10.63
2018-04-07T18:48:49.145Z,11.63
2018-04-07T18:51:17.965Z,10.40
2018-04-07T18:53:46.571Z,12.57
2018-04-07T18:56:16.457Z,11.03
2018-04-07T18:58:45.320Z,10.87
2018-04-07T19:01:13.632Z,11.30
2018-04-07T19:03:43.668Z,12.30
2018-04-07T19:06:12.264Z,12.00
2018-04-07T19:08:40.881Z,11.17
2018-04-07T19:11:09.232Z,12.53
2018-04-07T19:13:37.545Z,11.03
2018-04-07T19:16:06.524Z,13.23
2018-04-07T19:18:34.878Z,13.60
2018-04-07T19:21:03.179Z,14.93
2018-04-07T19:23:32.076Z,13.87
2018-04-07T19:26:00.564Z,13.60
2018-04-07T19:28:29.544Z,14.43
2018-04-07T19:30:57.844Z,13.90
2018-04-07T19:33:26.183Z,13.57
2018-04-07T19:35:54.558Z,14.23
2018-04-07T19:38:23.457Z,14.43
2018-04-07T19:40:52.819Z,12.83
2018-04-07T19:43:21.747Z,13.30
2018-04-07T19:45:50.517Z,14.03
2018-04-07T19:48:23.099Z,12.60
2018-04-07T19:50:51.745Z,13.60
2018-04-07T19:53:21.341Z,14.13
2018-04-07T19:55:50.579Z,13.27
2018-04-07T19:58:19.590Z,14.53
2018-04-07T20:00:47.889Z,13.50
2018-04-07T20:03:17.018Z,12.67
2018-04-07T20:05:45.405Z,14.63
2018-04-07T20:08:13.813Z,14.60
2018-04-07T20:10:42.460Z,13.00
2018-04-07T20:13:11.850Z,13.00
2018-04-07T20:15:40.884Z,13.40
2018-04-07T20:18:09.209Z,13.73
2018-04-07T20:20:37.517Z,16.00
2018-04-07T20:23:06.735Z,15.13
2018-04-07T20:25:35.645Z,13.70
2018-04-07T20:28:03.956Z,14.13
2018-04-07T20:30:32.914Z,13.77
2018-04-07T20:33:01.376Z,15.33
2018-04-07T20:35:30.505Z,12.13
2018-04-07T20:37:59.434Z,13.20
2018-04-07T20:40:27.801Z,14.47
2018-04-07T20:42:56.889Z,14.10
2018-04-07T20:45:25.245Z,12.87
2018-04-07T20:47:54.162Z,12.23
2018-04-07T20:50:23.012Z,13.57
2018-04-07T20:52:52.412Z,13.10
2018-04-07T20:55:21.635Z,12.47
2018-04-07T20:57:50.696Z,14.30
2018-04-07T21:00:19.021Z,13.60
2018-04-07T21:02:48.210Z,13.37
2018-04-07T21:05:17.176Z,14.30
2018-04-07T21:07:47.125Z,14.93
2018-04-07T21:10:15.820Z,14.33
2018-04-07T21:12:45.267Z,14.40
2018-04-07T21:15:15.325Z,13.10
2018-04-07T21:17:44.540Z,14.60
2018-04-07T21:20:14.244Z,12.40
2018-04-07T21:22:43.501Z,13.70
2018-04-07T21:25:12.122Z,14.33
2018-04-07T21:27:41.248Z,13.40
2018-04-07T21:30:10.917Z,12.77
2018-04-07T21:32:40.005Z,11.87
2018-04-07T21:35:09.112Z,12.73
2018-04-07T21:37:39.377Z,11.97
2018-04-07T21:40:07.993Z,12.33
2018-04-07T21:42:36.589Z,13.00
2018-04-07T21:45:06.370Z,13.67
2018-04-07T21:47:34.716Z,13.20
2018-04-07T21:50:03.009Z,14.53
2018-04-07T21:52:31.867Z,12.63
2018-04-07T21:55:01.047Z,14.20
2018-04-07T21:57:29.975Z,14.13
2018-04-07T21:59:58.559Z,13.20
2018-04-07T22:02:27.435Z,13.67
2018-04-07T22:04:59.646Z,12.80
2018-04-07T22:07:28.856Z,12.37
2018-04-07T22:09:57.953Z,13.50
2018-04-07T22:12:26.260Z,11.43
2018-04-07T22:14:55.425Z,11.00
2018-04-07T22:17:24.414Z,12.47
2018-04-07T22:19:53.484Z,10.83
2018-04-07T22:22:23.427Z,12.80
2018-04-07T22:24:52.048Z,12.43
2018-04-07T22:27:21.300Z,14.40
2018-04-07T22:29:49.949Z,12.40
2018-04-07T22:32:18.338Z,12.50
2018-04-07T22:34:46.662Z,12.40
2018-04-07T22:37:16.085Z,12.07
2018-04-07T22:39:44.694Z,11.87
2018-04-07T22:42:16.755Z,13.10
2018-04-07T22:44:48.432Z,14.07
2018-04-07T22:47:17.658Z,13.30
2018-04-07T22:49:45.952Z,11.13
2018-04-07T22:52:14.624Z,12.20
2018-04-07T22:54:43.652Z,12.90
2018-04-07T22:57:14.066Z,13.10
2018-04-07T22:59:42.370Z,12.60
2018-04-07T23:02:10.828Z,12.80
2018-04-07T23:04:39.825Z,13.23
2018-04-07T23:07:09.746Z,12.60
2018-04-07T23:09:38.559Z,11.73
2018-04-07T23:12:06.852Z,12.33
2018-04-07T23:14:36.206Z,13.00
2018-04-07T23:17:05.142Z,14.10
2018-04-07T23:19:34.241Z,13.37
2018-04-07T23:22:03.497Z,12.80
2018-04-07T23:24:32.428Z,12.40
2018-04-07T23:27:00.740Z,12.10
2018-04-07T23:29:29.060Z,12.07
2018-04-07T23:31:57.352Z,12.83
2018-04-07T23:34:26.374Z,11.47
2018-04-07T23:36:56.264Z,12.90
2018-04-07T23:39:24.708Z,12.67
2018-04-07T23:41:54.457Z,13.03
2018-04-07T23:44:24.360Z,12.93
2018-04-07T23:46:53.389Z,13.50
2018-04-07T23:49:21.770Z,13.57
2018-04-07T23:51:50.896Z,12.63
2018-04-07T23:54:20.101Z,11.83
2018-04-07T23:56:48.917Z,12.27
2018-04-07T23:59:17.302Z,13.37
